Kewadin, Michigan
Current Conditions -  °F | °C
As of 9:18 AM on Thursday 27 Nov 2014 (Local Time) from KACB Reporting Station
Light Snow Light Snow  
Wind Chill: 16°   Ceiling: 1200
Heat Index: 24°   Visibility: 5mi
Dew Point: 20°   Wind: 7mph
Humidity: 85%   Direction: 340°NNW
Pressure: 30.21"   Gusts: NA
Location:  44.93°N, 85.37°W
Report Text: KACB 271418Z AUTO 34006KT 5SM -SN BKN012 BKN022 OVC036 M04/M07 A3021 RMK AO2 T10451067
Loading
Personal Weather Stations






























Interactive Weather Map New forecast layout! Learn more

10-Day Weather Forecast

Advertisements
Track Severe Weather on mobile